createdAt,value
2023-05-21T00:00:33.775Z,434.00
2023-05-21T00:01:33.799Z,434.00
2023-05-21T00:02:33.864Z,436.00
2023-05-21T00:03:33.977Z,438.00
2023-05-21T00:04:33.879Z,437.00
2023-05-21T00:05:34.066Z,438.00
2023-05-21T00:06:33.909Z,437.00
2023-05-21T00:07:33.896Z,436.00
2023-05-21T00:08:33.912Z,436.00
2023-05-21T00:09:33.930Z,437.00
2023-05-21T00:10:33.955Z,439.00
2023-05-21T00:11:33.966Z,441.00
2023-05-21T00:12:33.967Z,439.00
2023-05-21T00:13:33.980Z,438.00
2023-05-21T00:14:34.029Z,439.00
2023-05-21T00:15:34.209Z,440.00
2023-05-21T00:16:34.071Z,442.00
2023-05-21T00:17:34.071Z,439.00
2023-05-21T00:18:34.057Z,437.00
2023-05-21T00:19:34.082Z,438.00
2023-05-21T00:20:34.090Z,442.00
2023-05-21T00:21:34.112Z,443.00
2023-05-21T00:22:34.131Z,443.00
2023-05-21T00:23:34.160Z,443.00
2023-05-21T00:24:34.153Z,445.00
2023-05-21T00:25:34.459Z,447.00
2023-05-21T00:26:34.166Z,446.00
2023-05-21T00:27:34.187Z,448.00
2023-05-21T00:28:34.192Z,445.00
2023-05-21T00:29:34.228Z,439.00
2023-05-21T00:30:34.242Z,440.00
2023-05-21T00:31:34.261Z,441.00
2023-05-21T00:32:34.351Z,441.00
2023-05-21T00:33:34.263Z,440.00
2023-05-21T00:34:34.279Z,441.00
2023-05-21T00:35:34.481Z,441.00
2023-05-21T00:36:34.303Z,442.00
2023-05-21T00:37:34.415Z,440.00
2023-05-21T00:38:34.344Z,443.00
2023-05-21T00:39:34.343Z,441.00
2023-05-21T00:40:34.363Z,441.00
2023-05-21T00:41:34.380Z,443.00
2023-05-21T00:42:34.388Z,444.00
2023-05-21T00:43:34.410Z,444.00
2023-05-21T00:44:34.558Z,444.00
2023-05-21T00:45:34.570Z,443.00
2023-05-21T00:46:34.485Z,439.00
2023-05-21T00:47:34.493Z,439.00
2023-05-21T00:48:34.499Z,440.00
2023-05-21T00:49:34.489Z,442.00
2023-05-21T00:50:34.495Z,442.00
2023-05-21T00:51:34.533Z,444.00
2023-05-21T00:52:34.540Z,445.00
2023-05-21T00:53:34.545Z,446.00
2023-05-21T00:54:34.550Z,448.00
2023-05-21T00:55:34.758Z,450.00
2023-05-21T00:56:34.595Z,449.00
2023-05-21T00:57:34.605Z,447.00
2023-05-21T00:58:34.598Z,448.00
2023-05-21T00:59:34.634Z,447.00
2023-05-21T01:00:34.655Z,446.00
2023-05-21T01:01:34.704Z,446.00
2023-05-21T01:02:34.841Z,444.00
2023-05-21T01:03:34.709Z,442.00
2023-05-21T01:04:34.705Z,439.00
2023-05-21T01:05:34.899Z,435.00
2023-05-21T01:06:34.820Z,439.00
2023-05-21T01:07:34.739Z,438.00
2023-05-21T01:08:34.748Z,436.00
2023-05-21T01:09:34.785Z,438.00
2023-05-21T01:10:34.786Z,441.00
2023-05-21T01:11:34.796Z,443.00
2023-05-21T01:12:34.824Z,446.00
2023-05-21T01:13:34.834Z,448.00
2023-05-21T01:14:34.860Z,447.00
2023-05-21T01:15:35.037Z,446.00
2023-05-21T01:16:34.950Z,448.00
2023-05-21T01:17:34.922Z,447.00
2023-05-21T01:18:34.970Z,448.00
2023-05-21T01:19:34.950Z,448.00
2023-05-21T01:20:34.962Z,447.00
2023-05-21T01:21:34.966Z,448.00
2023-05-21T01:22:34.986Z,451.00
2023-05-21T01:23:35.029Z,451.00
2023-05-21T01:24:35.007Z,450.00
2023-05-21T01:25:35.324Z,448.00
2023-05-21T01:26:35.057Z,450.00
2023-05-21T01:27:35.073Z,445.00
2023-05-21T01:28:35.090Z,446.00
2023-05-21T01:29:35.118Z,444.00
2023-05-21T01:30:35.126Z,443.00
2023-05-21T01:31:35.143Z,444.00
2023-05-21T01:32:35.263Z,443.00
2023-05-21T01:33:35.256Z,443.00
2023-05-21T01:34:35.206Z,444.00
2023-05-21T01:35:35.390Z,443.00
2023-05-21T01:36:35.266Z,444.00
2023-05-21T01:37:35.293Z,443.00
2023-05-21T01:38:35.305Z,441.00
2023-05-21T01:39:35.330Z,444.00
2023-05-21T01:40:35.476Z,444.00
2023-05-21T01:41:35.381Z,445.00
2023-05-21T01:42:35.399Z,446.00
2023-05-21T01:43:35.418Z,445.00
2023-05-21T01:44:35.446Z,446.00
2023-05-21T01:45:35.663Z,444.00
2023-05-21T01:46:35.489Z,442.00
2023-05-21T01:47:35.538Z,442.00
2023-05-21T01:48:35.539Z,441.00
2023-05-21T01:49:35.553Z,444.00
2023-05-21T01:50:35.579Z,446.00
2023-05-21T01:51:35.596Z,450.00
2023-05-21T01:52:35.608Z,450.00
2023-05-21T01:53:35.642Z,451.00
2023-05-21T01:54:35.669Z,447.00
2023-05-21T01:55:35.848Z,447.00
2023-05-21T01:56:35.701Z,447.00
2023-05-21T01:57:35.756Z,449.00
2023-05-21T01:58:35.768Z,448.00
2023-05-21T01:59:35.794Z,447.00
2023-05-21T02:00:35.815Z,450.00
2023-05-21T02:01:35.863Z,449.00
2023-05-21T02:02:35.998Z,449.00
2023-05-21T02:03:35.952Z,446.00
2023-05-21T02:04:35.914Z,445.00
2023-05-21T02:05:36.141Z,443.00
2023-05-21T02:06:35.966Z,444.00
2023-05-21T02:07:35.993Z,444.00
2023-05-21T02:08:36.002Z,445.00
2023-05-21T02:09:36.051Z,446.00
2023-05-21T02:10:36.099Z,445.00
2023-05-21T02:11:36.113Z,449.00
2023-05-21T02:12:36.150Z,448.00
2023-05-21T02:13:36.151Z,448.00
2023-05-21T02:14:36.178Z,448.00
2023-05-21T02:15:36.394Z,446.00
2023-05-21T02:16:36.339Z,445.00
2023-05-21T02:17:36.287Z,445.00
2023-05-21T02:18:36.283Z,449.00
2023-05-21T02:19:36.341Z,447.00
2023-05-21T02:20:36.330Z,448.00
2023-05-21T02:21:36.345Z,451.00
2023-05-21T02:22:36.365Z,452.00
2023-05-21T02:23:36.390Z,449.00
2023-05-21T02:24:36.411Z,451.00
2023-05-21T02:25:36.672Z,448.00
2023-05-21T02:26:36.468Z,451.00
2023-05-21T02:27:36.516Z,451.00
2023-05-21T02:28:36.586Z,450.00
2023-05-21T02:29:36.545Z,450.00
2023-05-21T02:30:36.612Z,451.00
2023-05-21T02:31:36.580Z,451.00
2023-05-21T02:32:36.689Z,455.00
2023-05-21T02:33:36.641Z,454.00
2023-05-21T02:34:36.658Z,452.00
2023-05-21T02:35:36.968Z,451.00
2023-05-21T02:36:36.708Z,455.00
2023-05-21T02:37:36.747Z,456.00
2023-05-21T02:38:36.759Z,457.00
2023-05-21T02:39:36.796Z,457.00
2023-05-21T02:40:36.813Z,456.00
2023-05-21T02:41:36.841Z,456.00
2023-05-21T02:42:36.887Z,457.00
2023-05-21T02:43:36.894Z,456.00
2023-05-21T02:44:36.948Z,456.00
2023-05-21T02:45:37.144Z,455.00
2023-05-21T02:46:36.988Z,454.00
2023-05-21T02:47:37.048Z,453.00
2023-05-21T02:48:37.030Z,454.00
2023-05-21T02:49:37.063Z,451.00
2023-05-21T02:50:37.110Z,450.00
2023-05-21T02:51:37.151Z,451.00
2023-05-21T02:52:37.157Z,451.00
2023-05-21T02:53:37.214Z,450.00
2023-05-21T02:54:37.241Z,447.00
2023-05-21T02:55:37.487Z,449.00
2023-05-21T02:56:37.311Z,448.00
2023-05-21T02:57:37.325Z,447.00
2023-05-21T02:58:37.372Z,448.00
2023-05-21T02:59:37.395Z,447.00
2023-05-21T03:00:37.445Z,446.00
2023-05-21T03:01:37.465Z,447.00
2023-05-21T03:02:37.539Z,447.00
2023-05-21T03:03:37.569Z,448.00
2023-05-21T03:04:37.566Z,448.00
2023-05-21T03:05:37.919Z,446.00
2023-05-21T03:06:37.627Z,444.00
2023-05-21T03:07:37.660Z,446.00
2023-05-21T03:08:37.714Z,446.00
2023-05-21T03:09:37.728Z,448.00
2023-05-21T03:10:37.760Z,448.00
2023-05-21T03:11:37.788Z,447.00
2023-05-21T03:12:37.836Z,445.00
2023-05-21T03:13:37.910Z,444.00
2023-05-21T03:14:37.900Z,445.00
2023-05-21T03:15:38.067Z,440.00
2023-05-21T03:16:38.020Z,440.00
2023-05-21T03:17:38.095Z,441.00
2023-05-21T03:18:38.054Z,442.00
2023-05-21T03:19:38.101Z,444.00
2023-05-21T03:20:38.114Z,446.00
2023-05-21T03:21:38.177Z,446.00
2023-05-21T03:22:38.188Z,449.00
2023-05-21T03:23:38.236Z,450.00
2023-05-21T03:24:38.279Z,449.00
2023-05-21T03:25:38.316Z,451.00
2023-05-21T03:26:38.351Z,454.00
2023-05-21T03:27:38.397Z,456.00
2023-05-21T03:28:38.446Z,454.00
2023-05-21T03:29:38.466Z,455.00
2023-05-21T03:30:38.496Z,455.00
2023-05-21T03:31:38.686Z,456.00
2023-05-21T03:32:38.597Z,457.00
2023-05-21T03:33:38.628Z,457.00
2023-05-21T03:34:38.646Z,457.00
2023-05-21T03:35:38.779Z,456.00
2023-05-21T03:36:38.717Z,457.00
2023-05-21T03:37:38.781Z,458.00
2023-05-21T03:38:38.803Z,455.00
2023-05-21T03:39:38.838Z,456.00
2023-05-21T03:40:38.883Z,454.00
2023-05-21T03:41:38.928Z,454.00
2023-05-21T03:42:38.970Z,454.00
2023-05-21T03:43:38.999Z,451.00
2023-05-21T03:44:39.025Z,455.00
2023-05-21T03:45:40.822Z,459.00
2023-05-21T03:46:39.174Z,462.00
2023-05-21T03:47:39.096Z,459.00
2023-05-21T03:48:39.035Z,456.00
2023-05-21T03:49:39.046Z,455.00
2023-05-21T03:50:39.012Z,452.00
2023-05-21T03:51:39.001Z,452.00
2023-05-21T03:52:39.026Z,450.00
2023-05-21T03:53:39.024Z,451.00
2023-05-21T03:54:38.981Z,453.00
2023-05-21T03:55:38.995Z,455.00
2023-05-21T03:56:39.015Z,454.00
2023-05-21T03:57:38.962Z,456.00
2023-05-21T03:58:38.973Z,458.00
2023-05-21T03:59:38.962Z,457.00
2023-05-21T04:00:38.946Z,456.00
2023-05-21T04:01:38.948Z,455.00
2023-05-21T04:02:39.052Z,455.00
2023-05-21T04:03:40.903Z,460.00
2023-05-21T04:04:39.036Z,461.00
2023-05-21T04:05:38.959Z,460.00
2023-05-21T04:06:38.913Z,460.00
2023-05-21T04:07:38.890Z,459.00
2023-05-21T04:08:38.885Z,459.00
2023-05-21T04:09:38.950Z,456.00
2023-05-21T04:10:39.014Z,455.00
2023-05-21T04:11:39.031Z,455.00
2023-05-21T04:12:39.066Z,459.00
2023-05-21T04:13:39.094Z,460.00
2023-05-21T04:14:39.137Z,460.00
2023-05-21T04:15:39.357Z,459.00
2023-05-21T04:16:39.245Z,457.00
2023-05-21T04:17:39.285Z,458.00
2023-05-21T04:18:39.304Z,460.00
2023-05-21T04:19:39.434Z,460.00
2023-05-21T04:20:39.394Z,459.00
2023-05-21T04:21:39.433Z,459.00
2023-05-21T04:22:39.472Z,460.00
2023-05-21T04:23:39.523Z,459.00
2023-05-21T04:24:39.545Z,460.00
2023-05-21T04:25:39.568Z,460.00
2023-05-21T04:26:39.622Z,460.00
2023-05-21T04:27:39.640Z,459.00
2023-05-21T04:28:39.675Z,460.00
2023-05-21T04:29:39.717Z,461.00
2023-05-21T04:30:39.764Z,461.00
2023-05-21T04:31:39.835Z,461.00
2023-05-21T04:32:39.912Z,459.00
2023-05-21T04:33:39.868Z,457.00
2023-05-21T04:34:39.915Z,457.00
2023-05-21T04:35:39.955Z,457.00
2023-05-21T04:36:39.983Z,458.00
2023-05-21T04:37:40.030Z,460.00
2023-05-21T04:38:40.065Z,459.00
2023-05-21T04:39:40.109Z,457.00
2023-05-21T04:40:40.151Z,458.00
2023-05-21T04:41:40.155Z,455.00
2023-05-21T04:42:40.218Z,455.00
2023-05-21T04:43:40.235Z,455.00
2023-05-21T04:44:40.294Z,453.00
2023-05-21T04:45:40.326Z,454.00
2023-05-21T04:46:41.761Z,455.00
2023-05-21T04:47:40.417Z,455.00
2023-05-21T04:48:40.422Z,454.00
2023-05-21T04:49:40.460Z,457.00
2023-05-21T04:50:40.497Z,459.00
2023-05-21T04:51:40.545Z,457.00
2023-05-21T04:52:40.669Z,456.00
2023-05-21T04:53:40.597Z,455.00
2023-05-21T04:54:40.636Z,454.00
2023-05-21T04:55:40.680Z,454.00
2023-05-21T04:56:40.713Z,454.00
2023-05-21T04:57:40.742Z,455.00
2023-05-21T04:58:40.780Z,456.00
2023-05-21T04:59:40.807Z,457.00
2023-05-21T05:00:40.875Z,459.00
2023-05-21T05:01:40.864Z,458.00
2023-05-21T05:02:40.942Z,457.00
2023-05-21T05:03:40.964Z,457.00
2023-05-21T05:04:40.937Z,457.00
2023-05-21T05:05:40.963Z,457.00
2023-05-21T05:06:41.021Z,458.00
2023-05-21T05:07:41.003Z,457.00
2023-05-21T05:08:41.015Z,458.00
2023-05-21T05:09:41.046Z,457.00
2023-05-21T05:10:41.063Z,457.00
2023-05-21T05:11:41.066Z,459.00
2023-05-21T05:12:41.079Z,460.00
2023-05-21T05:13:41.330Z,461.00
2023-05-21T05:14:41.111Z,463.00
2023-05-21T05:15:41.130Z,463.00
2023-05-21T05:16:41.297Z,463.00
2023-05-21T05:17:41.201Z,464.00
2023-05-21T05:18:41.173Z,463.00
2023-05-21T05:19:41.177Z,463.00
2023-05-21T05:20:41.211Z,467.00
2023-05-21T05:21:41.192Z,468.00
2023-05-21T05:22:41.201Z,465.00
2023-05-21T05:23:41.221Z,462.00
2023-05-21T05:24:41.261Z,463.00
2023-05-21T05:25:41.254Z,463.00
2023-05-21T05:26:41.265Z,463.00
2023-05-21T05:27:41.278Z,464.00
2023-05-21T05:28:41.296Z,462.00
2023-05-21T05:29:41.311Z,462.00
2023-05-21T05:30:41.341Z,462.00
2023-05-21T05:31:41.321Z,461.00
2023-05-21T05:32:41.350Z,459.00
2023-05-21T05:33:41.326Z,460.00
2023-05-21T05:34:41.314Z,459.00
2023-05-21T05:35:41.333Z,457.00
2023-05-21T05:36:41.324Z,456.00
2023-05-21T05:37:41.321Z,458.00
2023-05-21T05:38:41.329Z,457.00
2023-05-21T05:39:41.334Z,457.00
2023-05-21T05:40:41.331Z,456.00
2023-05-21T05:41:41.344Z,453.00
2023-05-21T05:42:41.336Z,452.00
2023-05-21T05:43:41.312Z,454.00
2023-05-21T05:44:41.322Z,453.00
2023-05-21T05:45:41.320Z,454.00
2023-05-21T05:46:41.469Z,455.00
2023-05-21T05:47:41.348Z,460.00
2023-05-21T05:48:41.330Z,461.00
2023-05-21T05:49:41.353Z,460.00
2023-05-21T05:50:41.371Z,459.00
2023-05-21T05:51:41.404Z,460.00
2023-05-21T05:52:41.440Z,461.00
2023-05-21T05:53:41.452Z,460.00
2023-05-21T05:54:41.508Z,458.00
2023-05-21T05:55:41.547Z,457.00
2023-05-21T05:56:41.677Z,458.00
2023-05-21T05:57:43.210Z,457.00
2023-05-21T05:58:41.624Z,457.00
2023-05-21T05:59:41.631Z,456.00
2023-05-21T06:00:41.626Z,456.00
2023-05-21T06:01:41.617Z,454.00
2023-05-21T06:02:41.688Z,453.00
2023-05-21T06:03:41.662Z,454.00
2023-05-21T06:04:41.599Z,453.00
2023-05-21T06:05:41.612Z,453.00
2023-05-21T06:06:41.580Z,453.00
2023-05-21T06:07:41.600Z,449.00
2023-05-21T06:08:41.570Z,451.00
2023-05-21T06:09:41.558Z,453.00
2023-05-21T06:10:41.554Z,454.00
2023-05-21T06:11:41.535Z,455.00
2023-05-21T06:12:41.534Z,453.00
2023-05-21T06:13:41.540Z,452.00
2023-05-21T06:14:43.735Z,454.00
2023-05-21T06:15:41.548Z,453.00
2023-05-21T06:16:41.583Z,452.00
2023-05-21T06:17:41.544Z,452.00
2023-05-21T06:18:41.509Z,453.00
2023-05-21T06:19:41.465Z,457.00
2023-05-21T06:20:41.465Z,459.00
2023-05-21T06:21:41.458Z,460.00
2023-05-21T06:22:41.448Z,459.00
2023-05-21T06:23:41.446Z,457.00
2023-05-21T06:24:41.435Z,456.00
2023-05-21T06:25:41.444Z,455.00
2023-05-21T06:26:41.419Z,453.00
2023-05-21T06:27:41.447Z,452.00
2023-05-21T06:28:41.408Z,453.00
2023-05-21T06:29:41.414Z,455.00
2023-05-21T06:30:41.411Z,457.00
2023-05-21T06:31:41.386Z,454.00
2023-05-21T06:32:41.460Z,453.00
2023-05-21T06:33:41.462Z,454.00
2023-05-21T06:34:41.384Z,453.00
2023-05-21T06:35:41.361Z,453.00
2023-05-21T06:36:41.369Z,455.00
2023-05-21T06:37:41.348Z,456.00
2023-05-21T06:38:41.359Z,455.00
2023-05-21T06:39:41.346Z,454.00
2023-05-21T06:40:41.328Z,454.00
2023-05-21T06:41:41.331Z,452.00
2023-05-21T06:42:41.330Z,450.00
2023-05-21T06:43:41.319Z,446.00
2023-05-21T06:44:41.311Z,445.00
2023-05-21T06:45:41.513Z,447.00
2023-05-21T06:46:41.328Z,445.00
2023-05-21T06:47:41.472Z,446.00
2023-05-21T06:48:41.412Z,446.00
2023-05-21T06:49:41.454Z,443.00
2023-05-21T06:50:41.505Z,443.00
2023-05-21T06:51:41.565Z,444.00
2023-05-21T06:52:41.603Z,446.00
2023-05-21T06:53:41.672Z,442.00
2023-05-21T06:54:41.710Z,447.00
2023-05-21T06:55:41.758Z,446.00
2023-05-21T06:56:41.800Z,445.00
2023-05-21T06:57:41.845Z,444.00
2023-05-21T06:58:41.888Z,441.00
2023-05-21T06:59:41.934Z,439.00
2023-05-21T07:00:41.983Z,441.00
2023-05-21T07:01:42.082Z,444.00
2023-05-21T07:02:42.149Z,444.00
2023-05-21T07:03:42.134Z,443.00
2023-05-21T07:04:42.139Z,442.00
2023-05-21T07:05:42.189Z,438.00
2023-05-21T07:06:42.212Z,438.00
2023-05-21T07:07:42.271Z,441.00
2023-05-21T07:08:42.304Z,441.00
2023-05-21T07:09:42.332Z,440.00
2023-05-21T07:10:42.415Z,438.00
2023-05-21T07:11:42.431Z,437.00
2023-05-21T07:12:42.470Z,440.00
2023-05-21T07:13:42.487Z,443.00
2023-05-21T07:14:42.528Z,442.00
2023-05-21T07:15:42.565Z,444.00
2023-05-21T07:16:42.766Z,443.00
2023-05-21T07:17:42.687Z,443.00
2023-05-21T07:18:42.743Z,438.00
2023-05-21T07:19:42.738Z,441.00
2023-05-21T07:20:42.765Z,440.00
2023-05-21T07:21:42.814Z,440.00
2023-05-21T07:22:42.861Z,440.00
2023-05-21T07:23:42.890Z,438.00
2023-05-21T07:24:42.913Z,437.00
2023-05-21T07:25:42.950Z,436.00
2023-05-21T07:26:42.993Z,435.00
2023-05-21T07:27:43.023Z,431.00
2023-05-21T07:28:43.074Z,431.00
2023-05-21T07:29:43.092Z,430.00
2023-05-21T07:30:43.145Z,434.00
2023-05-21T07:31:43.238Z,437.00
2023-05-21T07:32:43.204Z,438.00
2023-05-21T07:33:43.212Z,438.00
2023-05-21T07:34:43.237Z,440.00
2023-05-21T07:35:43.257Z,441.00
2023-05-21T07:36:43.277Z,439.00
2023-05-21T07:37:43.337Z,437.00
2023-05-21T07:38:43.317Z,437.00
2023-05-21T07:39:43.344Z,435.00
2023-05-21T07:40:43.366Z,434.00
2023-05-21T07:41:43.395Z,434.00
2023-05-21T07:42:43.425Z,433.00
2023-05-21T07:43:43.451Z,435.00
2023-05-21T07:44:43.451Z,438.00
2023-05-21T07:45:43.492Z,439.00
2023-05-21T07:46:43.548Z,438.00
2023-05-21T07:47:43.532Z,438.00
2023-05-21T07:48:43.577Z,437.00
2023-05-21T07:49:43.566Z,436.00
2023-05-21T07:50:43.556Z,437.00
2023-05-21T07:51:43.576Z,438.00
2023-05-21T07:52:43.636Z,440.00
2023-05-21T07:53:43.598Z,439.00
2023-05-21T07:54:43.611Z,438.00
2023-05-21T07:55:43.623Z,434.00
2023-05-21T07:56:43.626Z,436.00
2023-05-21T07:57:43.633Z,432.00
2023-05-21T07:58:43.636Z,429.00
2023-05-21T07:59:43.641Z,428.00
2023-05-21T08:00:43.652Z,428.00
2023-05-21T08:01:43.637Z,429.00
2023-05-21T08:02:43.716Z,429.00
2023-05-21T08:03:43.739Z,429.00
2023-05-21T08:04:43.642Z,429.00
2023-05-21T08:05:43.618Z,433.00
2023-05-21T08:06:43.634Z,437.00
2023-05-21T08:07:43.624Z,437.00
2023-05-21T08:08:43.621Z,437.00
2023-05-21T08:09:43.620Z,436.00
2023-05-21T08:10:43.640Z,434.00
2023-05-21T08:11:43.676Z,433.00
2023-05-21T08:12:43.675Z,432.00
2023-05-21T08:13:43.689Z,431.00
2023-05-21T08:14:43.711Z,432.00
2023-05-21T08:15:43.733Z,432.00
2023-05-21T08:16:43.903Z,433.00
2023-05-21T08:17:43.879Z,432.00
2023-05-21T08:18:43.897Z,429.00
2023-05-21T08:19:43.940Z,429.00
2023-05-21T08:20:43.982Z,429.00
2023-05-21T08:21:44.059Z,431.00
2023-05-21T08:22:44.084Z,429.00
2023-05-21T08:23:44.147Z,427.00
2023-05-21T08:24:44.225Z,428.00
2023-05-21T08:25:44.265Z,425.00
2023-05-21T08:26:44.326Z,423.00
2023-05-21T08:27:44.398Z,422.00
2023-05-21T08:28:44.464Z,424.00
2023-05-21T08:29:44.506Z,430.00
2023-05-21T08:30:44.588Z,432.00
2023-05-21T08:31:44.700Z,435.00
2023-05-21T08:32:44.749Z,439.00
2023-05-21T08:33:44.748Z,437.00
2023-05-21T08:34:44.819Z,434.00
2023-05-21T08:35:44.858Z,433.00
2023-05-21T08:36:44.926Z,432.00
2023-05-21T08:37:44.984Z,429.00
2023-05-21T08:38:45.032Z,430.00
2023-05-21T08:39:45.069Z,431.00
2023-05-21T08:40:45.138Z,430.00
2023-05-21T08:41:45.186Z,432.00
2023-05-21T08:42:45.240Z,433.00
2023-05-21T08:43:45.706Z,435.00
2023-05-21T08:44:45.326Z,435.00
2023-05-21T08:45:45.393Z,437.00
2023-05-21T08:46:45.441Z,437.00
2023-05-21T08:47:45.491Z,438.00
2023-05-21T08:48:45.525Z,438.00
2023-05-21T08:49:45.556Z,440.00
2023-05-21T08:50:45.616Z,437.00
2023-05-21T08:51:45.669Z,436.00
2023-05-21T08:52:45.696Z,439.00
2023-05-21T08:53:45.780Z,439.00
2023-05-21T08:54:45.783Z,440.00
2023-05-21T08:55:45.821Z,440.00
2023-05-21T08:56:45.867Z,436.00
2023-05-21T08:57:45.890Z,437.00
2023-05-21T08:58:45.913Z,436.00
2023-05-21T08:59:45.966Z,437.00
2023-05-21T09:00:45.993Z,439.00
2023-05-21T09:01:46.157Z,439.00
2023-05-21T09:02:46.086Z,439.00
2023-05-21T09:03:46.115Z,440.00
2023-05-21T09:04:46.182Z,442.00
2023-05-21T09:05:46.143Z,442.00
2023-05-21T09:06:46.168Z,442.00
2023-05-21T09:07:46.189Z,441.00
2023-05-21T09:08:46.214Z,438.00
2023-05-21T09:09:46.226Z,436.00
2023-05-21T09:10:46.255Z,434.00
2023-05-21T09:11:46.293Z,429.00
2023-05-21T09:12:46.297Z,430.00
2023-05-21T09:13:46.321Z,431.00
2023-05-21T09:14:46.352Z,428.00
2023-05-21T09:15:46.359Z,428.00
2023-05-21T09:16:46.432Z,427.00
2023-05-21T09:17:46.437Z,425.00
2023-05-21T09:18:46.432Z,425.00
2023-05-21T09:19:46.432Z,426.00
2023-05-21T09:20:46.461Z,427.00
2023-05-21T09:21:46.463Z,424.00
2023-05-21T09:22:46.490Z,423.00
2023-05-21T09:23:46.510Z,426.00
2023-05-21T09:24:46.519Z,428.00
2023-05-21T09:25:46.544Z,429.00
2023-05-21T09:26:46.531Z,431.00
2023-05-21T09:27:46.526Z,434.00
2023-05-21T09:28:46.542Z,435.00
2023-05-21T09:29:46.537Z,437.00
2023-05-21T09:30:46.538Z,437.00
2023-05-21T09:31:46.834Z,437.00
2023-05-21T09:32:46.614Z,437.00
2023-05-21T09:33:46.563Z,437.00
2023-05-21T09:34:46.562Z,435.00
2023-05-21T09:35:46.555Z,433.00
2023-05-21T09:36:46.564Z,430.00
2023-05-21T09:37:46.582Z,433.00
2023-05-21T09:38:46.589Z,431.00
2023-05-21T09:39:46.590Z,431.00
2023-05-21T09:40:46.615Z,427.00
2023-05-21T09:41:46.584Z,425.00
2023-05-21T09:42:46.605Z,425.00
2023-05-21T09:43:46.584Z,429.00
2023-05-21T09:44:46.582Z,432.00
2023-05-21T09:45:46.589Z,432.00
2023-05-21T09:46:46.630Z,432.00
2023-05-21T09:47:46.734Z,432.00
2023-05-21T09:48:46.589Z,433.00
2023-05-21T09:49:46.591Z,433.00
2023-05-21T09:50:46.588Z,433.00
2023-05-21T09:51:46.619Z,432.00
2023-05-21T09:52:46.601Z,431.00
2023-05-21T09:53:46.601Z,434.00
2023-05-21T09:54:46.618Z,435.00
2023-05-21T09:55:46.616Z,437.00
2023-05-21T09:56:46.615Z,436.00
2023-05-21T09:57:48.072Z,434.00
2023-05-21T09:58:46.682Z,437.00
2023-05-21T09:59:46.665Z,438.00
2023-05-21T10:00:46.674Z,439.00
2023-05-21T10:01:46.738Z,438.00
2023-05-21T10:02:46.780Z,439.00
2023-05-21T10:03:47.652Z,438.00
2023-05-21T10:04:46.842Z,440.00
2023-05-21T10:05:46.801Z,441.00
2023-05-21T10:06:46.787Z,438.00
2023-05-21T10:07:46.803Z,436.00
2023-05-21T10:08:46.798Z,438.00
2023-05-21T10:09:46.812Z,435.00
2023-05-21T10:10:46.828Z,432.00
2023-05-21T10:11:46.823Z,431.00
2023-05-21T10:12:46.798Z,427.00
2023-05-21T10:13:46.805Z,427.00
2023-05-21T10:14:46.824Z,424.00
2023-05-21T10:15:47.799Z,420.00
2023-05-21T10:16:47.078Z,420.00
2023-05-21T10:17:47.056Z,416.00
2023-05-21T10:18:47.015Z,423.00
2023-05-21T10:19:46.983Z,424.00
2023-05-21T10:20:46.981Z,423.00
2023-05-21T10:21:46.974Z,421.00
2023-05-21T10:22:46.985Z,422.00
2023-05-21T10:23:46.988Z,423.00
2023-05-21T10:24:46.985Z,422.00
2023-05-21T10:25:46.958Z,422.00
2023-05-21T10:26:46.976Z,424.00
2023-05-21T10:27:46.969Z,427.00
2023-05-21T10:28:46.948Z,426.00
2023-05-21T10:29:46.962Z,429.00
2023-05-21T10:30:46.941Z,427.00
2023-05-21T10:31:46.960Z,425.00
2023-05-21T10:32:47.049Z,426.00
2023-05-21T10:33:46.961Z,424.00
2023-05-21T10:34:46.952Z,421.00
2023-05-21T10:35:46.943Z,422.00
2023-05-21T10:36:46.957Z,423.00
2023-05-21T10:37:46.936Z,423.00
2023-05-21T10:38:46.951Z,425.00
2023-05-21T10:39:46.933Z,424.00
2023-05-21T10:40:46.943Z,423.00
2023-05-21T10:41:46.953Z,424.00
2023-05-21T10:42:46.954Z,426.00
2023-05-21T10:43:46.931Z,428.00
2023-05-21T10:44:46.966Z,426.00
2023-05-21T10:45:46.962Z,425.00
2023-05-21T10:46:46.921Z,423.00
2023-05-21T10:47:46.966Z,420.00
2023-05-21T10:48:46.920Z,424.00
2023-05-21T10:49:46.934Z,424.00
2023-05-21T10:50:46.935Z,424.00
2023-05-21T10:51:46.895Z,426.00
2023-05-21T10:52:46.897Z,425.00
2023-05-21T10:53:46.908Z,422.00
2023-05-21T10:54:46.912Z,420.00
2023-05-21T10:55:46.880Z,420.00
2023-05-21T10:56:46.896Z,417.00
2023-05-21T10:57:46.877Z,415.00
2023-05-21T10:58:46.894Z,415.00
2023-05-21T10:59:46.898Z,417.00
2023-05-21T11:00:46.881Z,416.00
2023-05-21T11:01:46.974Z,416.00
2023-05-21T11:02:46.949Z,416.00
2023-05-21T11:03:46.941Z,416.00
2023-05-21T11:04:46.875Z,417.00
2023-05-21T11:05:46.856Z,415.00
2023-05-21T11:06:46.854Z,416.00
2023-05-21T11:07:46.893Z,417.00
2023-05-21T11:08:46.854Z,419.00
2023-05-21T11:09:46.857Z,416.00
2023-05-21T11:10:46.857Z,419.00
2023-05-21T11:11:46.850Z,422.00
2023-05-21T11:12:46.914Z,425.00
2023-05-21T11:13:46.849Z,423.00
2023-05-21T11:14:46.841Z,423.00
2023-05-21T11:15:46.836Z,421.00
2023-05-21T11:16:47.007Z,422.00
2023-05-21T11:17:46.901Z,421.00
2023-05-21T11:18:46.881Z,422.00
2023-05-21T11:19:46.862Z,422.00
2023-05-21T11:20:46.853Z,421.00
2023-05-21T11:21:46.862Z,420.00
2023-05-21T11:22:46.885Z,421.00
2023-05-21T11:23:46.850Z,421.00
2023-05-21T11:24:48.269Z,423.00
2023-05-21T11:25:46.895Z,423.00
2023-05-21T11:26:46.892Z,422.00
2023-05-21T11:27:46.859Z,421.00
2023-05-21T11:28:46.850Z,423.00
2023-05-21T11:29:46.841Z,421.00
2023-05-21T11:30:46.842Z,424.00
2023-05-21T11:31:46.902Z,425.00
2023-05-21T11:32:46.836Z,427.00
2023-05-21T11:33:46.812Z,424.00
2023-05-21T11:34:46.837Z,426.00
2023-05-21T11:35:46.829Z,427.00
2023-05-21T11:36:46.823Z,425.00
2023-05-21T11:37:46.785Z,422.00
2023-05-21T11:38:46.771Z,421.00
2023-05-21T11:39:46.768Z,423.00
2023-05-21T11:40:46.753Z,427.00
2023-05-21T11:41:46.765Z,427.00
2023-05-21T11:42:46.754Z,425.00
2023-05-21T11:43:46.755Z,426.00
2023-05-21T11:44:46.788Z,426.00
2023-05-21T11:45:46.735Z,425.00
2023-05-21T11:46:46.773Z,423.00
2023-05-21T11:47:46.765Z,421.00
2023-05-21T11:48:46.701Z,423.00
2023-05-21T11:49:46.721Z,422.00
2023-05-21T11:50:46.704Z,423.00
2023-05-21T11:51:46.699Z,425.00
2023-05-21T11:52:46.697Z,427.00
2023-05-21T11:53:46.685Z,426.00
2023-05-21T11:54:46.669Z,430.00
2023-05-21T11:55:46.672Z,431.00
2023-05-21T11:56:46.659Z,430.00
2023-05-21T11:57:46.642Z,427.00
2023-05-21T11:58:46.638Z,424.00
2023-05-21T11:59:46.658Z,426.00
2023-05-21T12:00:46.639Z,426.00
2023-05-21T12:01:46.631Z,427.00
2023-05-21T12:02:46.765Z,428.00
2023-05-21T12:03:46.736Z,428.00
2023-05-21T12:04:46.599Z,426.00
2023-05-21T12:05:46.684Z,429.00
2023-05-21T12:06:46.649Z,429.00
2023-05-21T12:07:46.591Z,432.00
2023-05-21T12:08:46.589Z,431.00
2023-05-21T12:09:46.563Z,428.00
2023-05-21T12:10:46.562Z,429.00
2023-05-21T12:11:46.563Z,430.00
2023-05-21T12:12:55.850Z,433.00
2023-05-21T12:13:47.586Z,431.00
2023-05-21T12:14:46.527Z,431.00
2023-05-21T12:15:46.526Z,433.00
2023-05-21T12:16:46.564Z,432.00
2023-05-21T12:17:46.516Z,431.00
2023-05-21T12:18:46.536Z,429.00
2023-05-21T12:19:46.501Z,426.00
2023-05-21T12:20:46.494Z,428.00
2023-05-21T12:21:46.490Z,426.00
2023-05-21T12:22:46.472Z,423.00
2023-05-21T12:23:46.478Z,422.00
2023-05-21T12:24:46.469Z,423.00
2023-05-21T12:25:46.466Z,424.00
2023-05-21T12:26:46.445Z,424.00
2023-05-21T12:27:46.451Z,421.00
2023-05-21T12:28:46.437Z,420.00